Bartley, Indiana
Current Conditions -  °F | °C
As of 6:53 PM on Friday 19 Dec 2014 (Local Time) from KHUF Reporting Station
Overcast Overcast  
Wind Chill: 26°   Ceiling: 2900
Heat Index: 32°   Visibility: 10mi
Dew Point: 25°   Wind: 7mph
Humidity: 75%   Direction: 50°NE
Pressure: 30.3"   Gusts: NA
Location:  39.543°N, 87.3153°W
Report Text: KHUF 192353Z 05006KT 10SM OVC029 00/M04 A3030 RMK AO2 SLP268 T00001039 10017 20000 55002
Loading
Personal Weather Stations






























Interactive Weather Map New forecast layout! Learn more

10-Day Weather Forecast

Advertisements
Track Severe Weather on mobile